Time;durP1;ratioP1;P1;durP2;ratioP2;P2;SDS_P1;SDS_P2;PMS_P1;PMS_P2;Temp;Humidity;BMP_temperature;BMP_pressure;BME280_temperature;BME280_humidity;BME280_pressure;Samples;Min_cycle;Max_cycle;Signal;HPM_P1;HPM_P2
2021/03/28 00:02:14;;;;;;;12.23;4.95;;;13.00;99.90;;;;;;5054533;28;20021;-78
2021/03/28 00:04:50;;;;;;;8.73;4.50;;;13.10;99.90;;;;;;5054940;28;20029;-79
2021/03/28 00:07:19;;;;;;;12.60;5.38;;;13.10;99.90;;;;;;5054769;28;20071;-78
2021/03/28 00:09:53;;;;;;;11.73;4.95;;;13.10;99.90;;;;;;5054746;28;20459;-78
2021/03/28 00:12:18;;;;;;;;;;;13.10;99.90;;;;;;5054395;28;20049;-78
2021/03/28 00:15:06;;;;;;;6.20;3.67;;;13.10;99.90;;;;;;5054491;28;19915;-78
2021/03/28 00:17:53;;;;;;;8.88;3.97;;;13.10;99.90;;;;;;5036689;28;20648;-78
2021/03/28 00:20:19;;;;;;;7.80;4.50;;;13.10;99.90;;;;;;5034614;28;20040;-78
2021/03/28 00:23:07;;;;;;;9.30;5.07;;;13.10;99.90;;;;;;5034497;28;20025;-77
2021/03/28 00:25:42;;;;;;;7.82;4.38;;;13.10;99.90;;;;;;5054260;28;20032;-78
2021/03/28 00:28:32;;;;;;;7.40;4.78;;;13.10;99.90;;;;;;5054352;28;20514;-78
2021/03/28 00:31:21;;;;;;;12.85;4.75;;;13.10;99.90;;;;;;5054096;28;20497;-77
2021/03/28 00:34:13;;;;;;;11.95;4.63;;;13.10;99.90;;;;;;5034263;28;20100;-77
2021/03/28 00:36:51;;;;;;;13.20;4.35;;;13.10;99.90;;;;;;5034168;28;20070;-78
2021/03/28 00:39:39;;;;;;;7.90;4.82;;;13.00;99.90;;;;;;5034095;28;20064;-77
2021/03/28 00:42:08;;;;;;;10.57;4.43;;;13.00;99.90;;;;;;5040525;28;20025;-78
2021/03/28 00:44:52;;;;;;;8.95;4.60;;;13.10;99.90;;;;;;5036176;28;20437;-77
2021/03/28 00:47:19;;;;;;;;;;;13.00;99.90;;;;;;5054322;28;20047;-76
2021/03/28 00:49:47;;;;;;;12.15;4.97;;;13.10;99.90;;;;;;5035987;28;19908;-76
2021/03/28 00:52:13;;;;;;;12.15;5.38;;;13.10;99.90;;;;;;5035703;28;20033;-77
2021/03/28 00:54:50;;;;;;;7.20;4.43;;;13.10;99.90;;;;;;5053768;28;20028;-78
2021/03/28 00:57:20;;;;;;;6.93;4.60;;;13.00;99.90;;;;;;5035817;28;20687;-78
2021/03/28 01:00:10;;;;;;;8.38;4.70;;;13.00;99.90;;;;;;5035993;28;20090;-77
2021/03/28 01:03:02;;;;;;;7.60;4.53;;;13.00;99.90;;;;;;5035197;28;20036;-77
2021/03/28 01:05:50;;;;;;;8.30;5.25;;;13.00;99.90;;;;;;5053587;28;20792;-78
2021/03/28 01:08:19;;;;;;;7.10;3.92;;;13.00;99.90;;;;;;5053598;28;20158;-78
2021/03/28 01:11:09;;;;;;;9.38;4.55;;;13.00;99.90;;;;;;5053337;28;20501;-78
2021/03/28 01:14:12;;;;;;;10.10;5.82;;;13.00;99.90;;;;;;5052883;28;20124;-78
2021/03/28 01:17:20;;;;;;;9.70;4.18;;;13.00;99.90;;;;;;5051814;28;20036;-78
2021/03/28 01:20:16;;;;;;;5.97;4.00;;;12.90;99.90;;;;;;5027368;28;20041;-78
2021/03/28 01:22:58;;;;;;;4.95;3.53;;;12.90;99.90;;;;;;5052968;28;20393;-77
2021/03/28 01:25:59;;;;;;;5.57;3.72;;;12.80;99.90;;;;;;5033363;28;20029;-78
2021/03/28 01:28:34;;;;;;;9.13;5.10;;;12.80;99.90;;;;;;5025104;28;20042;-77
2021/03/28 01:31:21;;;;;;;15.60;5.47;;;12.80;99.90;;;;;;5033233;28;20036;-78
2021/03/28 01:34:09;;;;;;;8.30;3.90;;;12.80;99.90;;;;;;5039093;28;20072;-77
2021/03/28 01:36:41;;;;;;;28.23;5.10;;;12.80;99.90;;;;;;5052901;28;20550;-77
2021/03/28 01:39:10;;;;;;;6.97;3.65;;;12.80;99.90;;;;;;5052889;28;20051;-77
2021/03/28 01:42:02;;;;;;;6.32;3.38;;;12.80;99.90;;;;;;5052864;28;20047;-77
2021/03/28 01:44:49;;;;;;;11.40;4.07;;;12.90;99.90;;;;;;5022898;28;20040;-76
2021/03/28 01:47:45;;;;;;;7.88;4.25;;;12.90;99.90;;;;;;5034378;28;20025;-77
2021/03/28 01:50:45;;;;;;;11.68;4.10;;;12.80;99.90;;;;;;5032827;28;20180;-77
2021/03/28 01:53:39;;;;;;;9.45;4.63;;;12.80;99.90;;;;;;5014942;28;20032;-77
2021/03/28 01:56:28;;;;;;;9.38;4.50;;;12.80;99.90;;;;;;5051903;28;20512;-77
2021/03/28 01:59:25;;;;;;;8.32;3.72;;;12.80;99.90;;;;;;5051904;28;20033;-77
2021/03/28 02:02:21;;;;;;;5.68;3.55;;;12.70;99.90;;;;;;5034769;28;20037;-76
2021/03/28 02:05:14;;;;;;;8.90;3.95;;;12.70;99.90;;;;;;5051804;28;20040;-77
2021/03/28 02:08:01;;;;;;;9.52;3.80;;;12.70;99.90;;;;;;5052698;28;20059;-76
2021/03/28 02:10:58;;;;;;;7.57;3.80;;;12.70;99.90;;;;;;5052297;28;20025;-77
2021/03/28 02:14:00;;;;;;;7.88;4.03;;;12.70;99.90;;;;;;5051348;28;20052;-77
2021/03/28 02:16:43;;;;;;;6.63;4.05;;;12.70;99.90;;;;;;5051642;28;20024;-77
2021/03/28 02:19:21;;;;;;;7.28;4.55;;;12.70;99.90;;;;;;5034311;28;20040;-78
2021/03/28 02:22:01;;;;;;;8.27;4.25;;;12.70;99.90;;;;;;5052430;28;20112;-77
2021/03/28 02:24:45;;;;;;;9.38;4.40;;;12.70;99.90;;;;;;5052309;28;20039;-78
2021/03/28 02:27:39;;;;;;;8.65;3.90;;;12.70;99.90;;;;;;5034084;28;20132;-78
2021/03/28 02:30:17;;;;;;;10.13;3.97;;;12.70;99.90;;;;;;5052234;28;20021;-78
2021/03/28 02:33:07;;;;;;;7.35;4.00;;;12.70;99.90;;;;;;5052172;28;20044;-78
2021/03/28 02:36:11;;;;;;;6.22;3.40;;;12.70;99.90;;;;;;5051965;28;20036;-78
2021/03/28 02:39:00;;;;;;;8.63;4.10;;;12.70;99.90;;;;;;5052041;28;20390;-80
2021/03/28 02:42:07;;;;;;;5.95;3.50;;;12.70;99.90;;;;;;5052165;28;20131;-80
2021/03/28 02:45:03;;;;;;;8.68;4.10;;;12.70;99.90;;;;;;5052056;28;20022;-79
2021/03/28 02:47:52;;;;;;;6.18;3.90;;;12.70;99.90;;;;;;5051904;28;20033;-80
2021/03/28 02:50:21;;;;;;;7.13;3.20;;;12.60;99.90;;;;;;5052050;28;20391;-80
2021/03/28 02:53:12;;;;;;;7.65;3.70;;;12.60;99.90;;;;;;5052042;28;20479;-80
2021/03/28 02:56:05;;;;;;;6.13;3.22;;;12.60;99.90;;;;;;5052023;28;20502;-78
2021/03/28 02:58:38;;;;;;;6.72;4.03;;;12.50;99.90;;;;;;5014129;28;20033;-78
2021/03/28 03:01:30;;;;;;;;;;;12.50;99.90;;;;;;5014963;28;20438;-79
2021/03/28 03:04:57;;;;;;;6.95;3.90;;;12.50;99.90;;;;;;5019291;28;20015;-79
2021/03/28 03:07:44;;;;;;;7.65;4.05;;;12.60;99.90;;;;;;5007930;28;20043;-78
2021/03/28 03:10:25;;;;;;;4.93;3.17;;;12.60;99.90;;;;;;5051777;28;20025;-78
2021/03/28 03:13:03;;;;;;;8.65;3.47;;;12.60;99.90;;;;;;5033697;28;20521;-78
2021/03/28 03:15:54;;;;;;;6.72;3.35;;;12.50;99.90;;;;;;5048234;28;20033;-80
2021/03/28 03:18:44;;;;;;;9.85;3.50;;;12.50;99.90;;;;;;5045825;28;20032;-77
2021/03/28 03:21:54;;;;;;;8.48;3.72;;;12.40;99.90;;;;;;5033715;28;20434;-78
2021/03/28 03:24:44;;;;;;;4.75;3.40;;;12.40;99.90;;;;;;5051912;28;20131;-77
2021/03/28 03:27:19;;;;;;;8.70;4.53;;;12.40;99.90;;;;;;5055054;28;20028;-76
2021/03/28 03:30:06;;;;;;;8.68;3.97;;;12.40;99.90;;;;;;5055518;28;20021;-77
2021/03/28 03:33:01;;;;;;;5.65;3.85;;;12.40;99.90;;;;;;5055236;28;20501;-78
2021/03/28 03:35:47;;;;;;;10.30;3.95;;;12.40;99.90;;;;;;5055273;28;20102;-78
2021/03/28 03:38:45;;;;;;;4.57;3.28;;;12.30;99.90;;;;;;5023774;28;20033;-78
2021/03/28 03:41:48;;;;;;;6.53;3.28;;;12.30;99.90;;;;;;5037197;28;20033;-78
2021/03/28 03:44:48;;;;;;;6.75;3.13;;;12.30;99.90;;;;;;5037319;28;20040;-77
2021/03/28 03:47:38;;;;;;;9.13;4.20;;;12.30;99.90;;;;;;5055132;28;20029;-78
2021/03/28 03:50:15;;;;;;;10.00;4.07;;;12.30;99.90;;;;;;5055058;28;20115;-80
2021/03/28 03:52:59;;;;;;;7.43;3.60;;;12.40;99.90;;;;;;5055017;28;20033;-80
2021/03/28 03:55:34;;;;;;;7.50;3.45;;;12.40;99.90;;;;;;5054923;28;20498;-79
2021/03/28 03:58:04;;;;;;;4.57;3.13;;;12.30;99.90;;;;;;5055030;28;20126;-79
2021/03/28 04:00:41;;;;;;;9.15;3.65;;;12.30;99.90;;;;;;5034999;28;20033;-80
2021/03/28 04:03:30;;;;;;;6.15;3.60;;;12.30;99.90;;;;;;5034883;28;20111;-79
2021/03/28 04:06:03;;;;;;;8.23;3.50;;;12.20;99.90;;;;;;5034874;28;20033;-80
2021/03/28 04:08:48;;;;;;;;;;;12.20;99.90;;;;;;5036388;28;20364;-80
2021/03/28 04:11:19;;;;;;;7.93;3.13;;;12.20;99.90;;;;;;5054438;28;19999;-79
2021/03/28 04:14:02;;;;;;;8.77;3.97;;;12.20;99.90;;;;;;5016822;28;20381;-78
2021/03/28 04:16:38;;;;;;;7.43;3.10;;;12.10;99.90;;;;;;5034576;28;20029;-79
2021/03/28 04:19:04;;;;;;;10.35;3.53;;;12.10;99.90;;;;;;5031399;28;21893;-79
2021/03/28 04:22:02;;;;;;;3.97;2.88;;;12.00;99.90;;;;;;5026286;28;20029;-79
2021/03/28 04:24:45;;;;;;;6.70;3.22;;;12.10;99.90;;;;;;5034311;28;20029;-79
2021/03/28 04:27:10;;;;;;;7.10;3.50;;;12.10;99.90;;;;;;5034545;28;20439;-79
2021/03/28 04:29:42;;;;;;;6.05;3.40;;;12.10;99.90;;;;;;5033133;28;20065;-79
2021/03/28 04:32:35;;;;;;;7.07;3.63;;;12.10;99.90;;;;;;5033058;28;20033;-78
2021/03/28 04:35:26;;;;;;;5.68;3.00;;;12.10;99.90;;;;;;5034322;28;20075;-77
2021/03/28 04:38:15;;;;;;;6.57;3.00;;;12.10;99.90;;;;;;5033629;28;20099;-77
2021/03/28 04:41:13;;;;;;;7.97;3.35;;;12.20;99.90;;;;;;5025845;28;20154;-77
2021/03/28 04:43:42;;;;;;;6.57;3.30;;;12.20;99.90;;;;;;5033034;28;20083;-76
2021/03/28 04:46:55;;;;;;;7.97;3.28;;;12.10;99.90;;;;;;5034171;28;20025;-79
2021/03/28 04:49:52;;;;;;;6.20;3.28;;;12.20;99.90;;;;;;5007193;28;20034;-79
2021/03/28 04:52:27;;;;;;;7.90;4.07;;;12.20;99.90;;;;;;5014195;28;20104;-79
2021/03/28 04:55:09;;;;;;;5.30;3.33;;;12.20;99.90;;;;;;5014265;28;20040;-78
2021/03/28 04:57:34;;;;;;;12.07;3.83;;;12.20;99.90;;;;;;5014223;28;20030;-79
2021/03/28 05:00:12;;;;;;;6.45;3.47;;;12.20;99.90;;;;;;5014063;28;20041;-79
2021/03/28 05:03:16;;;;;;;4.90;3.58;;;12.10;99.90;;;;;;5014068;28;20392;-78
2021/03/28 05:06:20;;;;;;;8.07;3.20;;;12.10;99.90;;;;;;5000881;28;20100;-79
2021/03/28 05:08:57;;;;;;;5.03;3.20;;;12.10;99.90;;;;;;5013969;28;20389;-79
2021/03/28 05:12:22;;;;;;;8.32;3.90;;;12.10;99.90;;;;;;5019653;28;20029;-78
2021/03/28 05:15:14;;;;;;;5.70;3.75;;;12.10;99.90;;;;;;5022971;28;20141;-79
2021/03/28 05:18:08;;;;;;;6.25;3.90;;;12.10;99.90;;;;;;5033497;28;20476;-79
2021/03/28 05:20:43;;;;;;;7.07;3.72;;;12.20;99.90;;;;;;5032253;28;20128;-79
2021/03/28 05:23:18;;;;;;;8.15;4.68;;;12.20;99.90;;;;;;5032780;28;20025;-79
2021/03/28 05:25:50;;;;;;;9.38;3.78;;;12.30;99.90;;;;;;5031971;28;20120;-80
2021/03/28 05:28:39;;;;;;;7.53;4.50;;;12.30;99.90;;;;;;5033263;28;20030;-80
2021/03/28 05:31:46;;;;;;;6.47;4.00;;;12.40;99.90;;;;;;5033276;28;20395;-79
2021/03/28 05:34:43;;;;;;;7.35;4.70;;;12.40;99.90;;;;;;5013600;28;20029;-79
2021/03/28 05:37:54;;;;;;;10.38;4.45;;;12.50;99.90;;;;;;5014797;28;20030;-79
2021/03/28 05:40:57;;;;;;;7.30;4.60;;;12.50;99.90;;;;;;5028971;28;20059;-79
2021/03/28 05:44:01;;;;;;;8.70;4.72;;;12.60;99.90;;;;;;5036340;28;20077;-79
2021/03/28 05:46:44;;;;;;;16.23;4.70;;;12.70;99.90;;;;;;5030588;28;20029;-79
2021/03/28 05:49:28;;;;;;;9.77;5.55;;;12.70;99.90;;;;;;5023723;28;20033;-79
2021/03/28 05:52:32;;;;;;;9.07;5.93;;;12.70;99.90;;;;;;5013051;28;20427;-79
2021/03/28 05:54:58;;;;;;;11.50;7.80;;;12.80;99.90;;;;;;5032742;28;20029;-79
2021/03/28 05:58:01;;;;;;;9.82;6.47;;;12.80;99.90;;;;;;5032491;28;20044;-79
2021/03/28 06:00:46;;;;;;;10.10;6.07;;;12.80;99.90;;;;;;5031737;28;20040;-80
2021/03/28 06:03:20;;;;;;;9.32;5.78;;;12.80;99.90;;;;;;5022740;28;20356;-80
2021/03/28 06:06:13;;;;;;;8.90;5.88;;;12.90;99.90;;;;;;5032518;28;20021;-79
2021/03/28 06:09:17;;;;;;;9.80;5.93;;;12.90;99.90;;;;;;5032612;28;20036;-79
2021/03/28 06:12:05;;;;;;;14.02;7.78;;;13.00;99.90;;;;;;5019926;28;20030;-80
2021/03/28 06:14:38;;;;;;;10.45;5.82;;;13.00;99.90;;;;;;5028029;28;20040;-79
2021/03/28 06:17:04;;;;;;;14.05;6.97;;;13.10;99.90;;;;;;5032461;28;20030;-79
2021/03/28 06:19:33;;;;;;;13.70;7.70;;;13.20;99.90;;;;;;5032376;28;20033;-80
2021/03/28 06:22:14;;;;;;;17.30;7.07;;;13.20;99.90;;;;;;5031237;28;20280;-80
2021/03/28 06:25:15;;;;;;;13.32;7.95;;;13.30;99.90;;;;;;5030637;28;20034;-80
2021/03/28 06:28:03;;;;;;;16.27;8.93;;;13.30;99.90;;;;;;5031843;28;20029;-79
2021/03/28 06:30:44;;;;;;;11.27;6.20;;;13.40;99.90;;;;;;5032183;28;20468;-79
2021/03/28 06:33:32;;;;;;;9.77;5.75;;;13.40;99.90;;;;;;5031493;28;20032;-79
2021/03/28 06:36:29;;;;;;;7.10;5.15;;;13.30;99.90;;;;;;5012507;28;20030;-80
2021/03/28 06:39:20;;;;;;;8.20;4.65;;;13.30;99.90;;;;;;5012560;28;20062;-80
2021/03/28 06:42:01;;;;;;;11.93;5.28;;;13.30;99.90;;;;;;5012564;28;20030;-79
2021/03/28 06:44:45;;;;;;;8.15;4.47;;;13.30;99.90;;;;;;5021607;28;20377;-80
2021/03/28 06:47:32;;;;;;;13.15;5.60;;;13.30;99.90;;;;;;5029128;28;20041;-79
2021/03/28 06:49:58;;;;;;;10.63;5.05;;;13.40;99.90;;;;;;5025014;28;20036;-79
2021/03/28 06:52:52;;;;;;;11.88;6.22;;;13.40;99.90;;;;;;5030279;28;20030;-79
2021/03/28 06:55:43;;;;;;;9.85;5.28;;;13.50;99.90;;;;;;5038597;28;20039;-79
2021/03/28 06:58:29;;;;;;;12.60;6.25;;;13.50;99.90;;;;;;5012081;28;20658;-79
2021/03/28 07:01:33;;;;;;;11.73;6.10;;;13.60;99.90;;;;;;5015165;28;20377;-79
2021/03/28 07:04:24;;;;;;;10.77;7.03;;;13.70;99.90;;;;;;5016103;28;20026;-79
2021/03/28 07:07:10;;;;;;;11.90;7.05;;;13.80;99.90;;;;;;5016180;28;20030;-79
2021/03/28 07:09:55;;;;;;;11.15;6.25;;;13.90;99.90;;;;;;5015945;28;20022;-79
2021/03/28 07:12:45;;;;;;;14.88;6.43;;;13.90;99.90;;;;;;5018947;28;20124;-80
2021/03/28 07:15:39;;;;;;;9.90;6.30;;;14.00;99.90;;;;;;5040817;28;20047;-80
2021/03/28 07:18:38;;;;;;;12.20;5.80;;;14.10;99.90;;;;;;5049786;28;20478;-76
2021/03/28 07:21:33;;;;;;;12.10;4.00;;;14.20;99.90;;;;;;5040435;28;20287;-77
2021/03/28 07:24:08;;;;;;;6.78;4.25;;;14.30;99.90;;;;;;5044772;28;20500;-76
2021/03/28 07:26:53;;;;;;;5.35;3.67;;;14.40;99.90;;;;;;5048652;28;20356;-78
2021/03/28 07:29:49;;;;;;;6.95;3.92;;;14.50;99.90;;;;;;5055194;28;20043;-77
2021/03/28 07:32:27;;;;;;;11.25;4.10;;;14.50;99.90;;;;;;5042537;28;20431;-77
2021/03/28 07:35:24;;;;;;;5.53;3.17;;;14.60;99.90;;;;;;5045948;28;20542;-77
2021/03/28 07:38:19;;;;;;;5.03;3.03;;;14.60;99.90;;;;;;5054484;28;20017;-78
2021/03/28 07:41:06;;;;;;;5.05;3.67;;;14.70;99.90;;;;;;5052393;28;20080;-76
2021/03/28 07:44:02;;;;;;;6.32;3.40;;;14.70;99.90;;;;;;5055066;28;20017;-77
2021/03/28 07:47:09;;;;;;;6.57;3.47;;;14.80;99.90;;;;;;5054678;28;20037;-75
2021/03/28 07:49:56;;;;;;;7.20;3.72;;;14.90;99.90;;;;;;5021804;28;20182;-76
2021/03/28 07:52:56;;;;;;;4.50;2.30;;;14.90;99.90;;;;;;5053895;28;20029;-75
2021/03/28 07:55:28;;;;;;;6.28;2.72;;;15.00;99.90;;;;;;5021643;28;20082;-76
2021/03/28 07:58:16;;;;;;;13.43;3.28;;;15.10;99.90;;;;;;5054593;28;20406;-78
2021/03/28 08:01:13;;;;;;;7.40;3.30;;;15.20;99.90;;;;;;5054893;28;20123;-78
2021/03/28 08:04:04;;;;;;;4.07;2.63;;;15.30;99.90;;;;;;5054778;28;20075;-75
2021/03/28 08:06:41;;;;;;;3.90;2.60;;;15.40;99.90;;;;;;5052825;28;20383;-75
2021/03/28 08:09:22;;;;;;;3.78;2.50;;;15.50;99.90;;;;;;5036558;28;20483;-73
2021/03/28 08:11:53;;;;;;;6.25;2.60;;;15.60;99.90;;;;;;5053431;28;20025;-74
2021/03/28 08:14:41;;;;;;;4.25;2.90;;;15.60;99.90;;;;;;5054461;28;20045;-75
2021/03/28 08:17:22;;;;;;;4.95;3.35;;;15.70;99.90;;;;;;5049290;28;20036;-74
2021/03/28 08:20:00;;;;;;;6.03;2.90;;;15.70;99.90;;;;;;5036548;28;20449;-75
2021/03/28 08:22:44;;;;;;;9.57;4.47;;;15.80;99.90;;;;;;5052168;28;20491;-74
2021/03/28 08:25:22;;;;;;;7.75;4.03;;;15.90;99.90;;;;;;5054211;28;20029;-75
2021/03/28 08:28:24;;;;;;;5.68;2.88;;;15.90;99.90;;;;;;5053677;28;20032;-75
2021/03/28 08:31:29;;;;;;;4.18;2.53;;;16.00;99.90;;;;;;5054053;28;20028;-75
2021/03/28 08:34:06;;;;;;;4.75;2.45;;;16.10;99.90;;;;;;5054290;28;20036;-75
2021/03/28 08:36:47;;;;;;;4.03;2.58;;;16.10;99.90;;;;;;5053684;28;20025;-75
2021/03/28 08:39:27;;;;;;;3.42;2.17;;;16.20;99.90;;;;;;5053773;28;20033;-74
2021/03/28 08:42:02;;;;;;;6.10;3.00;;;16.40;99.90;;;;;;5054062;28;20032;-75
2021/03/28 08:45:07;;;;;;;4.10;3.63;;;16.50;99.90;;;;;;5054062;28;20025;-74
2021/03/28 08:47:52;;;;;;;2.25;1.95;;;16.60;99.90;;;;;;5032702;28;20549;-74
2021/03/28 08:50:48;;;;;;;3.55;2.75;;;16.70;99.90;;;;;;5053806;28;20041;-76
2021/03/28 08:53:23;;;;;;;4.38;2.20;;;16.80;99.90;;;;;;5051863;28;20032;-75
2021/03/28 08:56:27;;;;;;;4.05;2.10;;;16.90;99.90;;;;;;5046762;28;20071;-75
2021/03/28 08:59:43;;;;;;;5.70;2.35;;;17.10;99.90;;;;;;5026049;28;20395;-74
2021/03/28 09:02:50;;;;;;;5.07;1.92;;;17.30;99.90;;;;;;5025329;28;20039;-74
2021/03/28 09:05:36;;;;;;;3.58;2.20;;;17.30;99.90;;;;;;5024721;28;20479;-74
2021/03/28 09:08:09;;;;;;;3.72;2.40;;;17.50;99.90;;;;;;5053176;28;20025;-76
2021/03/28 09:11:05;;;;;;;;;;;17.60;99.90;;;;;;5033930;28;20052;-76
2021/03/28 09:13:36;;;;;;;3.45;2.33;;;17.70;99.90;;;;;;4977058;28;20012;-79
2021/03/28 09:16:14;;;;;;;5.35;2.15;;;17.80;99.90;;;;;;5013686;28;20032;-79
2021/03/28 09:19:11;;;;;;;2.55;1.60;;;17.90;99.90;;;;;;5018379;28;20535;-78
2021/03/28 09:21:46;;;;;;;3.05;1.70;;;18.10;99.90;;;;;;5030943;28;20029;-77
2021/03/28 09:24:48;;;;;;;2.90;1.60;;;18.10;99.90;;;;;;5032846;28;20044;-79
2021/03/28 09:27:35;;;;;;;3.47;2.13;;;18.20;99.90;;;;;;5002196;28;20103;-76
2021/03/28 09:30:24;;;;;;;3.05;1.90;;;18.40;99.90;;;;;;5032593;28;20379;-76
2021/03/28 09:33:09;;;;;;;2.08;1.88;;;18.40;99.90;;;;;;5033032;28;20391;-75
2021/03/28 09:36:09;;;;;;;5.50;1.67;;;18.50;99.90;;;;;;5039652;28;20123;-73
2021/03/28 09:38:54;;;;;;;5.93;2.33;;;18.50;99.90;;;;;;5033564;28;20040;-74
2021/03/28 09:41:58;;;;;;;6.03;2.38;;;18.40;99.90;;;;;;5032604;28;20078;-73
2021/03/28 09:44:51;;;;;;;3.20;2.45;;;18.20;99.90;;;;;;5033053;28;20040;-75
2021/03/28 09:47:17;;;;;;;;;;;18.10;99.90;;;;;;5033254;28;20029;-76
2021/03/28 09:50:02;;;;;;;5.47;2.00;;;18.30;99.90;;;;;;5032608;28;19959;-76
2021/03/28 09:52:31;;;;;;;2.72;2.42;;;18.40;99.90;;;;;;5029867;28;20484;-75
2021/03/28 09:55:15;;;;;;;3.85;2.08;;;18.50;99.90;;;;;;5032733;28;20152;-76
2021/03/28 09:58:34;;;;;;;2.80;1.70;;;18.60;99.90;;;;;;5032765;28;20383;-76
2021/03/28 10:01:33;;;;;;;3.58;2.15;;;18.70;99.90;;;;;;4996700;28;20530;-75
2021/03/28 10:04:05;;;;;;;3.45;1.75;;;18.70;99.90;;;;;;5012831;28;20495;-77
2021/03/28 10:06:32;;;;;;;3.60;2.17;;;18.90;99.90;;;;;;5012766;28;20025;-75
2021/03/28 10:09:00;;;;;;;7.30;1.45;;;19.10;99.90;;;;;;5012687;28;20063;-75
2021/03/28 10:12:04;;;;;;;6.07;1.92;;;19.30;99.90;;;;;;5023105;28;20029;-76
2021/03/28 10:14:36;;;;;;;;;;;19.40;99.90;;;;;;5002096;28;20064;-76
2021/03/28 10:17:14;;;;;;;5.75;1.60;;;19.60;99.70;;;;;;5032520;28;19909;-76
2021/03/28 10:19:46;;;;;;;6.20;1.50;;;19.60;99.20;;;;;;5029469;28;20037;-73
2021/03/28 10:22:46;;;;;;;2.13;1.45;;;19.80;98.70;;;;;;5025851;28;20018;-76
2021/03/28 10:25:34;;;;;;;3.00;1.88;;;20.00;97.70;;;;;;5023178;28;20033;-76
2021/03/28 10:28:18;;;;;;;1.70;1.40;;;20.10;97.80;;;;;;5012598;28;20029;-74
2021/03/28 10:31:09;;;;;;;1.88;1.40;;;20.30;97.20;;;;;;5012609;28;20079;-74
2021/03/28 10:33:41;;;;;;;4.10;1.20;;;20.50;96.10;;;;;;5027581;28;20100;-74
2021/03/28 10:36:28;;;;;;;2.42;1.55;;;20.70;96.20;;;;;;5031006;28;20040;-73
2021/03/28 10:39:25;;;;;;;5.53;1.95;;;20.90;94.60;;;;;;5014470;28;20041;-74
2021/03/28 10:42:24;;;;;;;2.97;1.50;;;21.10;93.40;;;;;;5024535;28;20030;-73
2021/03/28 10:45:19;;;;;;;2.78;1.45;;;21.30;92.80;;;;;;5024024;28;20022;-74
2021/03/28 10:48:03;;;;;;;4.00;1.63;;;21.40;93.50;;;;;;5035372;28;20125;-73
2021/03/28 10:50:50;;;;;;;9.13;4.80;;;21.60;93.30;;;;;;5035389;28;20033;-76
2021/03/28 10:53:22;;;;;;;17.13;10.02;;;21.60;92.40;;;;;;5023745;28;20447;-74
2021/03/28 10:56:07;;;;;;;13.35;4.32;;;21.50;92.50;;;;;;5029655;28;20065;-75
2021/03/28 10:58:38;;;;;;;3.50;1.63;;;21.70;92.60;;;;;;5019328;28;20100;-74
2021/03/28 11:01:13;;;;;;;4.22;1.80;;;21.90;91.90;;;;;;5031703;28;20041;-74
2021/03/28 11:03:57;;;;;;;2.42;1.50;;;21.80;92.30;;;;;;5031781;28;20025;-74
2021/03/28 11:06:41;;;;;;;3.58;2.20;;;21.80;91.40;;;;;;5031878;28;20030;-74
2021/03/28 11:09:29;;;;;;;3.40;1.50;;;21.90;92.10;;;;;;5030573;28;20029;-75
2021/03/28 11:12:00;;;;;;;5.68;1.75;;;22.00;92.80;;;;;;5018054;28;20815;-75
2021/03/28 11:14:44;;;;;;;3.75;1.58;;;21.80;92.50;;;;;;5030197;28;20041;-76
2021/03/28 11:17:35;;;;;;;2.67;1.40;;;21.60;91.80;;;;;;5031742;28;20045;-76
2021/03/28 11:20:13;;;;;;;1.90;1.40;;;21.10;92.10;;;;;;5031738;28;20060;-74
2021/03/28 11:23:04;;;;;;;6.78;3.67;;;20.70;92.10;;;;;;5026797;28;20021;-76
2021/03/28 11:25:32;;;;;;;2.90;1.80;;;20.00;93.00;;;;;;5002925;28;20121;-74
2021/03/28 11:28:12;;;;;;;5.25;3.20;;;20.00;93.20;;;;;;5031707;28;20021;-75
2021/03/28 11:30:47;;;;;;;3.28;2.05;;;20.10;93.30;;;;;;5031824;28;20056;-75
2021/03/28 11:33:19;;;;;;;4.10;1.88;;;20.00;92.80;;;;;;5031177;28;20018;-74
2021/03/28 11:36:02;;;;;;;4.57;1.92;;;19.90;92.60;;;;;;5026032;28;20435;-75
2021/03/28 11:38:55;;;;;;;4.20;2.50;;;19.90;92.80;;;;;;5030135;28;20036;-76
2021/03/28 11:41:20;;;;;;;6.63;2.63;;;20.20;92.90;;;;;;5030863;28;20052;-74
2021/03/28 11:43:50;;;;;;;3.15;1.73;;;20.70;92.80;;;;;;5026386;28;20030;-76
2021/03/28 11:46:25;;;;;;;2.75;1.65;;;21.20;92.00;;;;;;5026251;28;20056;-74
2021/03/28 11:48:54;;;;;;;2.08;1.48;;;21.70;91.80;;;;;;5033563;28;20022;-75
2021/03/28 11:51:38;;;;;;;3.75;1.48;;;22.10;91.10;;;;;;5034982;28;20387;-76
2021/03/28 11:54:14;;;;;;;3.50;2.10;;;22.40;91.00;;;;;;5034216;28;20029;-76
2021/03/28 11:56:45;;;;;;;4.50;1.83;;;22.70;90.50;;;;;;5034932;28;20034;-76
2021/03/28 11:59:22;;;;;;;3.53;1.50;;;22.80;90.30;;;;;;5035079;28;20029;-75
2021/03/28 12:02:06;;;;;;;3.70;1.70;;;22.90;90.40;;;;;;5044379;28;20083;-75
2021/03/28 12:04:50;;;;;;;3.10;1.60;;;23.00;89.40;;;;;;5034634;28;20029;-73
2021/03/28 12:07:19;;;;;;;;;;;23.20;89.30;;;;;;5035090;28;20088;-76
2021/03/28 12:10:08;;;;;;;3.72;1.83;;;22.60;87.50;;;;;;5033834;28;20004;-75
2021/03/28 12:12:40;;;;;;;3.53;1.70;;;22.30;88.40;;;;;;5033853;28;20048;-75
2021/03/28 12:15:44;;;;;;;4.43;2.15;;;22.30;89.70;;;;;;5054622;28;20021;-73
2021/03/28 12:18:40;;;;;;;9.45;4.28;;;21.70;90.10;;;;;;5052749;28;20042;-74
2021/03/28 12:21:08;;;;;;;4.70;2.80;;;22.00;90.10;;;;;;5044936;28;20041;-75
2021/03/28 12:23:42;;;;;;;9.68;4.38;;;22.40;90.10;;;;;;5054447;28;20509;-74
2021/03/28 12:26:23;;;;;;;10.38;4.80;;;22.60;91.40;;;;;;5048154;28;20025;-76
2021/03/28 12:28:54;;;;;;;;;;;23.00;91.40;;;;;;5054718;28;20079;-77
2021/03/28 12:31:46;;;;;;;4.57;2.95;;;23.30;91.20;;;;;;5054134;28;19931;-76
2021/03/28 12:34:38;;;;;;;5.18;2.67;;;23.50;90.80;;;;;;5054001;28;20029;-76
2021/03/28 12:37:23;;;;;;;3.78;1.85;;;23.50;90.30;;;;;;5054026;28;20056;-76
2021/03/28 12:39:49;;;;;;;3.33;2.10;;;23.20;90.00;;;;;;5053755;28;20099;-76
2021/03/28 12:42:22;;;;;;;7.27;3.20;;;23.00;91.10;;;;;;5053991;28;20025;-75
2021/03/28 12:45:16;;;;;;;7.10;3.83;;;23.10;92.30;;;;;;5053059;28;20492;-76
2021/03/28 12:47:42;;;;;;;4.28;2.40;;;23.20;92.70;;;;;;5053868;28;20029;-74
2021/03/28 12:50:13;;;;;;;4.17;2.10;;;23.30;92.70;;;;;;5053922;28;20414;-77
2021/03/28 12:52:51;;;;;;;2.92;1.90;;;23.50;92.70;;;;;;5035870;28;20032;-74
2021/03/28 12:55:37;;;;;;;2.88;2.00;;;23.70;93.00;;;;;;5053909;28;20029;-76
2021/03/28 12:58:09;;;;;;;3.75;2.30;;;24.10;92.80;;;;;;5052535;28;20438;-76
2021/03/28 13:00:52;;;;;;;3.40;1.98;;;24.40;92.00;;;;;;5052746;28;20041;-76
2021/03/28 13:03:24;;;;;;;5.32;2.30;;;24.20;91.40;;;;;;5053532;28;20021;-76
2021/03/28 13:06:13;;;;;;;7.22;2.35;;;24.30;91.60;;;;;;5053581;28;20364;-75
2021/03/28 13:09:09;;;;;;;3.78;2.35;;;24.40;91.50;;;;;;5053536;28;20021;-73
2021/03/28 13:11:55;;;;;;;3.58;2.13;;;24.60;91.70;;;;;;5025328;28;20045;-76
2021/03/28 13:14:33;;;;;;;3.60;1.67;;;24.80;91.00;;;;;;5064730;28;20056;-76
2021/03/28 13:17:06;;;;;;;3.08;1.77;;;25.10;90.10;;;;;;5036762;28;20082;-73
2021/03/28 13:19:37;;;;;;;4.95;1.90;;;25.10;89.10;;;;;;5045491;28;20150;-76
2021/03/28 13:22:24;;;;;;;3.28;1.65;;;25.20;89.30;;;;;;5043816;28;20072;-71
2021/03/28 13:25:07;;;;;;;2.45;2.00;;;24.90;88.70;;;;;;5046384;28;20492;-72
2021/03/28 13:27:33;;;;;;;2.47;1.75;;;24.90;88.10;;;;;;5033269;28;20044;-73
2021/03/28 13:30:05;;;;;;;2.08;1.80;;;24.60;88.70;;;;;;5033062;28;20124;-74
2021/03/28 13:32:38;;;;;;;2.42;1.65;;;24.60;89.90;;;;;;5032944;28;20026;-74
2021/03/28 13:35:27;;;;;;;2.42;1.75;;;24.70;88.50;;;;;;5033622;28;20037;-73
2021/03/28 13:37:55;;;;;;;4.63;2.28;;;24.80;88.20;;;;;;5044257;28;20422;-73
2021/03/28 13:40:46;;;;;;;1.90;1.45;;;25.00;88.60;;;;;;5052680;28;20037;-73
2021/03/28 13:43:25;;;;;;;2.60;1.65;;;25.10;87.70;;;;;;5052941;28;20021;-74
2021/03/28 13:45:53;;;;;;;3.90;2.17;;;25.20;87.30;;;;;;5049118;28;20036;-73
2021/03/28 13:48:22;;;;;;;2.53;2.10;;;25.40;88.50;;;;;;5052010;28;20111;-74
2021/03/28 13:51:01;;;;;;;5.88;1.98;;;25.50;87.20;;;;;;5042994;28;20033;-76
2021/03/28 13:53:31;;;;;;;6.32;2.03;;;25.80;86.70;;;;;;5046809;28;20056;-73
2021/03/28 13:56:06;;;;;;;3.25;1.80;;;25.80;84.80;;;;;;5048107;28;20581;-77
2021/03/28 13:58:37;;;;;;;2.85;1.67;;;25.20;84.90;;;;;;5046455;28;20027;-77
2021/03/28 14:01:12;;;;;;;8.85;2.33;;;24.60;86.60;;;;;;5043250;28;20109;-77
2021/03/28 14:03:41;;;;;;;5.63;2.22;;;23.90;87.90;;;;;;5048702;28;20033;-77
2021/03/28 14:06:22;;;;;;;4.97;1.98;;;23.30;88.70;;;;;;5047206;28;20378;-77
2021/03/28 14:08:53;;;;;;;3.17;1.67;;;22.90;90.20;;;;;;5044183;28;20045;-75
2021/03/28 14:11:29;;;;;;;3.95;1.98;;;22.90;90.20;;;;;;5039850;28;20032;-71
2021/03/28 14:14:05;;;;;;;3.28;1.88;;;22.90;90.60;;;;;;5049491;28;20060;-75
2021/03/28 14:16:40;;;;;;;6.47;2.55;;;22.70;90.60;;;;;;5051172;28;20017;-75
2021/03/28 14:19:13;;;;;;;2.47;1.77;;;22.40;90.90;;;;;;5040730;28;20043;-71